createdAt,value
2023-02-20T00:01:06.116Z,1.65
2023-02-20T00:03:33.219Z,1.65
2023-02-20T00:06:00.627Z,1.52
2023-02-20T00:08:27.879Z,1.70
2023-02-20T00:10:55.176Z,2.03
2023-02-20T00:13:22.952Z,1.80
2023-02-20T00:15:50.351Z,1.73
2023-02-20T00:18:19.154Z,1.58
2023-02-20T00:20:49.093Z,1.98
2023-02-20T00:23:16.384Z,1.60
2023-02-20T00:25:46.047Z,1.75
2023-02-20T00:28:13.324Z,1.98
2023-02-20T00:30:40.629Z,1.75
2023-02-20T00:33:07.794Z,1.63
2023-02-20T00:35:34.999Z,1.60
2023-02-20T00:38:02.434Z,1.60
2023-02-20T00:40:29.603Z,1.60
2023-02-20T00:42:56.965Z,1.63
2023-02-20T00:45:24.046Z,1.80
2023-02-20T00:47:51.496Z,2.08
2023-02-20T00:50:19.001Z,1.42
2023-02-20T00:52:46.862Z,1.77
2023-02-20T00:55:14.650Z,1.67
2023-02-20T00:57:42.122Z,1.80
2023-02-20T01:00:17.099Z,1.70
2023-02-20T01:02:44.248Z,1.70
2023-02-20T01:05:12.064Z,1.90
2023-02-20T01:07:39.812Z,1.70
2023-02-20T01:10:09.881Z,1.80
2023-02-20T01:12:37.232Z,1.67
2023-02-20T01:15:06.876Z,1.80
2023-02-20T01:17:34.260Z,1.60
2023-02-20T01:20:01.337Z,1.85
2023-02-20T01:22:28.404Z,1.98
2023-02-20T01:24:55.618Z,1.70
2023-02-20T01:27:23.030Z,1.90
2023-02-20T01:29:50.101Z,1.80
2023-02-20T01:32:17.474Z,2.00
2023-02-20T01:34:44.610Z,2.00
2023-02-20T01:37:14.647Z,1.80
2023-02-20T01:39:42.767Z,2.08
2023-02-20T01:42:17.838Z,2.30
2023-02-20T01:44:45.390Z,2.33
2023-02-20T01:47:17.374Z,2.17
2023-02-20T01:49:44.547Z,2.70
2023-02-20T01:52:19.218Z,2.20
2023-02-20T01:54:53.026Z,2.13
2023-02-20T01:57:23.690Z,2.20
2023-02-20T01:59:54.675Z,2.35
2023-02-20T02:02:24.010Z,2.38
2023-02-20T02:04:51.982Z,2.08
2023-02-20T02:07:19.522Z,2.00
2023-02-20T02:09:48.756Z,2.28
2023-02-20T02:12:16.004Z,2.20
2023-02-20T02:14:43.281Z,2.35
2023-02-20T02:17:33.873Z,2.08
2023-02-20T02:20:03.048Z,2.00
2023-02-20T02:22:53.439Z,2.03
2023-02-20T02:25:32.927Z,2.00
2023-02-20T02:28:27.431Z,1.85
2023-02-20T02:31:11.037Z,1.23
2023-02-20T02:34:01.645Z,2.03
2023-02-20T02:36:36.375Z,2.17
2023-02-20T02:39:26.913Z,2.35
2023-02-20T02:42:05.242Z,1.85
2023-02-20T02:44:52.043Z,1.95
2023-02-20T02:47:23.410Z,2.25
2023-02-20T02:50:13.065Z,1.95
2023-02-20T02:52:48.759Z,1.80
2023-02-20T02:55:20.290Z,1.85
2023-02-20T02:57:47.853Z,2.30
2023-02-20T03:00:37.572Z,1.80
2023-02-20T03:03:08.140Z,1.80
2023-02-20T03:06:00.115Z,2.10
2023-02-20T03:08:39.973Z,2.08
2023-02-20T03:11:08.503Z,1.92
2023-02-20T03:14:04.086Z,2.53
2023-02-20T03:19:28.442Z,2.60
2023-02-20T03:21:57.613Z,2.97
2023-02-20T03:24:27.713Z,2.70
2023-02-20T03:26:57.866Z,2.78
2023-02-20T03:29:33.349Z,2.55
2023-02-20T03:32:27.035Z,2.80
2023-02-20T03:35:17.120Z,2.75
2023-02-20T03:38:07.547Z,2.60
2023-02-20T03:40:54.961Z,2.67
2023-02-20T03:43:28.082Z,2.97
2023-02-20T03:46:07.184Z,3.08
2023-02-20T03:48:46.394Z,3.03
2023-02-20T03:51:15.204Z,2.83
2023-02-20T03:53:49.802Z,3.20
2023-02-20T03:56:22.029Z,3.53
2023-02-20T03:59:01.934Z,3.42
2023-02-20T04:01:35.054Z,3.20
2023-02-20T04:04:07.073Z,3.50
2023-02-20T04:06:37.337Z,3.65
2023-02-20T04:09:10.472Z,3.22
2023-02-20T04:11:49.654Z,3.55
2023-02-20T04:14:20.142Z,3.72
2023-02-20T04:16:55.223Z,2.92
2023-02-20T04:19:22.759Z,2.47
2023-02-20T04:21:55.900Z,3.40
2023-02-20T04:24:31.282Z,3.45
2023-02-20T04:26:59.366Z,3.40
2023-02-20T04:29:28.056Z,3.83
2023-02-20T04:31:57.655Z,3.85
2023-02-20T04:34:30.421Z,3.35
2023-02-20T04:37:08.916Z,3.17
2023-02-20T04:39:36.497Z,3.10
2023-02-20T04:42:04.344Z,3.10
2023-02-20T04:44:32.355Z,3.75
2023-02-20T04:47:01.054Z,3.42
2023-02-20T04:49:28.825Z,3.55
2023-02-20T04:51:58.110Z,3.58
2023-02-20T04:54:25.716Z,3.50
2023-02-20T04:56:53.748Z,3.63
2023-02-20T04:59:21.559Z,3.28
2023-02-20T05:01:52.192Z,3.25
2023-02-20T05:04:20.905Z,3.55
2023-02-20T05:06:52.820Z,3.17
2023-02-20T05:09:21.584Z,2.80
2023-02-20T05:11:49.639Z,2.70
2023-02-20T05:14:17.754Z,3.60
2023-02-20T05:16:45.636Z,3.70
2023-02-20T05:19:14.089Z,3.58
2023-02-20T05:22:03.823Z,2.92
2023-02-20T05:24:32.341Z,2.72
2023-02-20T05:26:59.911Z,2.80
2023-02-20T05:29:27.469Z,2.90
2023-02-20T05:31:54.927Z,3.70
2023-02-20T05:34:22.912Z,3.33
2023-02-20T05:36:50.204Z,3.72
2023-02-20T05:39:18.212Z,3.45
2023-02-20T05:41:45.530Z,3.55
2023-02-20T05:44:12.717Z,3.78
2023-02-20T05:46:41.913Z,3.85
2023-02-20T05:49:10.600Z,3.42
2023-02-20T05:51:37.978Z,3.63
2023-02-20T05:54:05.577Z,3.92
2023-02-20T05:56:33.469Z,3.40
2023-02-20T05:59:01.244Z,3.50
2023-02-20T06:01:31.305Z,3.50
2023-02-20T06:03:58.783Z,4.00
2023-02-20T06:06:35.738Z,4.05
2023-02-20T06:09:08.164Z,4.10
2023-02-20T06:11:35.796Z,3.50
2023-02-20T06:14:04.271Z,3.65
2023-02-20T06:16:32.428Z,3.80
2023-02-20T06:19:01.030Z,3.33
2023-02-20T06:21:29.104Z,3.58
2023-02-20T06:23:56.219Z,4.35
2023-02-20T06:26:24.265Z,5.00
2023-02-20T06:28:52.825Z,5.35
2023-02-20T06:31:24.008Z,5.35
2023-02-20T06:33:51.972Z,5.00
2023-02-20T06:36:22.932Z,9.63
2023-02-20T06:38:50.594Z,15.38
2023-02-20T06:41:17.635Z,13.88
2023-02-20T06:43:45.077Z,14.93
2023-02-20T06:46:12.735Z,4.50
2023-02-20T06:48:50.048Z,3.53
2023-02-20T06:51:20.460Z,3.92
2023-02-20T06:53:47.990Z,3.63
2023-02-20T06:56:20.055Z,4.32
2023-02-20T06:58:49.698Z,4.35
2023-02-20T07:01:18.919Z,5.22
2023-02-20T07:03:49.156Z,4.85
2023-02-20T07:06:17.957Z,3.15
2023-02-20T07:08:45.418Z,3.03
2023-02-20T07:11:14.023Z,2.90
2023-02-20T07:13:41.668Z,3.78
2023-02-20T07:16:09.066Z,4.90
2023-02-20T07:18:36.353Z,5.40
2023-02-20T07:21:04.122Z,4.63
2023-02-20T07:23:31.704Z,4.20
2023-02-20T07:25:59.181Z,3.38
2023-02-20T07:28:26.689Z,3.67
2023-02-20T07:30:54.307Z,3.67
2023-02-20T07:33:21.825Z,3.30
2023-02-20T07:35:49.188Z,2.75
2023-02-20T07:38:16.630Z,2.45
2023-02-20T07:40:44.171Z,2.30
2023-02-20T07:43:11.707Z,2.53
2023-02-20T07:45:39.892Z,2.75
2023-02-20T07:48:07.152Z,3.00
2023-02-20T07:50:34.983Z,2.58
2023-02-20T07:53:02.356Z,2.65
2023-02-20T07:55:29.737Z,2.35
2023-02-20T07:57:58.536Z,2.60
2023-02-20T08:00:28.037Z,2.42
2023-02-20T08:02:55.718Z,2.50
2023-02-20T08:05:23.039Z,2.65
2023-02-20T08:07:51.373Z,2.30
2023-02-20T08:10:22.119Z,3.60
2023-02-20T08:12:50.510Z,2.45
2023-02-20T08:15:20.120Z,3.00
2023-02-20T08:17:49.542Z,3.00
2023-02-20T08:20:20.648Z,2.80
2023-02-20T08:22:51.296Z,3.42
2023-02-20T08:25:19.408Z,2.92
2023-02-20T08:27:50.166Z,3.10
2023-02-20T08:30:25.639Z,2.90
2023-02-20T08:32:56.084Z,3.35
2023-02-20T08:35:25.624Z,3.90
2023-02-20T08:37:52.953Z,4.20
2023-02-20T08:40:20.602Z,3.75
2023-02-20T08:42:50.865Z,3.70
2023-02-20T08:45:18.242Z,4.40
2023-02-20T08:47:45.747Z,3.90
2023-02-20T08:50:13.053Z,4.03
2023-02-20T08:52:43.260Z,4.40
2023-02-20T08:55:12.136Z,4.05
2023-02-20T08:57:42.513Z,4.13
2023-02-20T09:00:10.931Z,3.67
2023-02-20T09:02:38.112Z,4.00
2023-02-20T09:05:05.623Z,3.90
2023-02-20T09:07:33.163Z,4.18
2023-02-20T09:10:00.556Z,4.53
2023-02-20T09:12:28.034Z,4.57
2023-02-20T09:14:55.070Z,4.22
2023-02-20T09:17:22.132Z,4.55
2023-02-20T09:19:49.497Z,4.70
2023-02-20T09:22:16.742Z,4.80
2023-02-20T09:24:44.399Z,4.78
2023-02-20T09:27:11.619Z,4.78
2023-02-20T09:29:41.197Z,5.07
2023-02-20T09:32:08.514Z,4.90
2023-02-20T09:34:36.073Z,4.20
2023-02-20T09:37:03.513Z,4.75
2023-02-20T09:39:31.225Z,4.82
2023-02-20T09:42:19.465Z,4.40
2023-02-20T09:45:10.688Z,4.88
2023-02-20T09:47:52.650Z,4.85
2023-02-20T09:50:48.853Z,5.57
2023-02-20T09:53:21.560Z,4.97
2023-02-20T09:55:50.096Z,5.55
2023-02-20T09:58:41.460Z,5.25
2023-02-20T10:01:11.501Z,4.65
2023-02-20T10:03:58.660Z,4.68
2023-02-20T10:06:30.248Z,4.90
2023-02-20T10:08:59.530Z,4.60
2023-02-20T10:11:51.275Z,4.22
2023-02-20T10:14:22.852Z,4.40
2023-02-20T10:16:57.700Z,4.65
2023-02-20T10:19:37.675Z,4.75
2023-02-20T10:22:13.869Z,4.80
2023-02-20T10:25:20.400Z,5.65
2023-02-20T10:27:51.050Z,5.82
2023-02-20T10:30:26.226Z,5.93
2023-02-20T10:33:33.198Z,6.25
2023-02-20T10:36:05.210Z,6.72
2023-02-20T10:38:40.468Z,6.40
2023-02-20T10:41:31.149Z,7.15
2023-02-20T10:44:07.603Z,7.95
2023-02-20T10:46:49.382Z,7.93
2023-02-20T10:49:28.318Z,9.40
2023-02-20T10:52:01.349Z,9.68
2023-02-20T10:54:44.131Z,9.40
2023-02-20T10:57:20.894Z,8.73
2023-02-20T11:00:00.503Z,9.30
2023-02-20T11:02:32.582Z,8.20
2023-02-20T11:05:06.275Z,7.88
2023-02-20T11:07:33.940Z,8.40
2023-02-20T11:10:01.083Z,7.40
2023-02-20T11:12:34.910Z,7.53
2023-02-20T11:15:22.845Z,8.00
2023-02-20T11:17:53.759Z,7.78
2023-02-20T11:20:42.491Z,7.82
2023-02-20T11:23:10.422Z,7.07
2023-02-20T11:25:39.043Z,7.90
2023-02-20T11:28:26.946Z,7.20
2023-02-20T11:31:06.224Z,7.00
2023-02-20T11:33:43.041Z,7.18
2023-02-20T11:36:20.958Z,7.07
2023-02-20T11:38:49.454Z,7.60
2023-02-20T11:41:37.173Z,6.93
2023-02-20T11:44:10.563Z,7.60
2023-02-20T11:46:37.840Z,7.22
2023-02-20T11:49:08.020Z,7.55
2023-02-20T11:51:44.933Z,7.65
2023-02-20T11:54:29.847Z,6.82
2023-02-20T11:57:01.802Z,6.47
2023-02-20T11:59:41.550Z,6.90
2023-02-20T12:02:16.198Z,6.90
2023-02-20T12:04:45.937Z,7.15
2023-02-20T12:07:33.857Z,7.03
2023-02-20T12:10:19.988Z,7.45
2023-02-20T12:12:48.033Z,7.28
2023-02-20T12:15:17.442Z,7.20
2023-02-20T12:18:07.712Z,8.32
2023-02-20T12:20:40.011Z,8.02
2023-02-20T12:23:17.701Z,8.20
2023-02-20T12:26:23.564Z,8.20
2023-02-20T12:29:04.663Z,9.57
2023-02-20T12:31:33.233Z,10.73
2023-02-20T12:34:08.498Z,10.25
2023-02-20T12:36:36.842Z,9.50
2023-02-20T12:39:24.169Z,10.18
2023-02-20T12:42:00.473Z,10.50
2023-02-20T12:44:48.751Z,10.38
2023-02-20T12:47:34.088Z,10.55
2023-02-20T12:50:28.834Z,9.80
2023-02-20T12:53:16.916Z,9.10
2023-02-20T12:55:52.098Z,9.63
2023-02-20T12:58:43.310Z,8.68
2023-02-20T13:01:14.809Z,8.68
2023-02-20T13:04:04.751Z,9.38
2023-02-20T13:06:43.368Z,9.30
2023-02-20T13:09:32.997Z,7.78
2023-02-20T13:12:07.342Z,7.80
2023-02-20T13:14:42.410Z,6.85
2023-02-20T13:17:31.002Z,6.80
2023-02-20T13:20:08.618Z,7.45
2023-02-20T13:22:35.989Z,6.47
2023-02-20T13:25:43.042Z,8.13
2023-02-20T13:28:13.705Z,6.35
2023-02-20T13:30:41.561Z,6.88
2023-02-20T13:33:29.508Z,7.03
2023-02-20T13:35:57.757Z,6.43
2023-02-20T13:38:27.362Z,5.28
2023-02-20T13:40:55.705Z,6.43
2023-02-20T13:43:22.803Z,5.40
2023-02-20T13:46:12.570Z,6.03
2023-02-20T13:48:46.316Z,6.68
2023-02-20T13:51:18.037Z,5.63
2023-02-20T13:53:50.515Z,6.18
2023-02-20T13:56:20.328Z,5.95
2023-02-20T13:58:48.903Z,6.45
2023-02-20T14:01:16.604Z,6.70
2023-02-20T14:03:44.067Z,6.18
2023-02-20T14:06:17.398Z,6.90
2023-02-20T14:08:50.632Z,7.63
2023-02-20T14:11:29.582Z,6.80
2023-02-20T14:13:59.274Z,6.47
2023-02-20T14:16:34.765Z,7.72
2023-02-20T14:19:10.149Z,8.45
2023-02-20T14:21:39.663Z,8.48
2023-02-20T14:24:27.608Z,7.80
2023-02-20T14:26:57.739Z,8.52
2023-02-20T14:29:31.113Z,9.60
2023-02-20T14:32:00.549Z,9.88
2023-02-20T14:34:37.169Z,10.07
2023-02-20T14:37:16.115Z,10.60
2023-02-20T14:39:49.538Z,10.48
2023-02-20T14:42:23.357Z,11.25
2023-02-20T14:45:02.833Z,10.65
2023-02-20T14:47:31.758Z,11.05
2023-02-20T14:50:17.902Z,11.00
2023-02-20T14:52:45.287Z,10.27
2023-02-20T14:55:18.425Z,10.25
2023-02-20T14:57:45.785Z,10.63
2023-02-20T15:00:21.123Z,10.60
2023-02-20T15:02:53.828Z,10.48
2023-02-20T15:05:42.309Z,10.18
2023-02-20T15:08:13.272Z,9.95
2023-02-20T15:10:42.771Z,9.57
2023-02-20T15:13:14.309Z,9.27
2023-02-20T15:15:45.021Z,9.50
2023-02-20T15:18:17.770Z,9.35
2023-02-20T15:20:49.633Z,9.07
2023-02-20T15:23:18.217Z,9.02
2023-02-20T15:25:45.463Z,9.82
2023-02-20T15:28:18.091Z,9.95
2023-02-20T15:31:06.051Z,9.43
2023-02-20T15:33:37.354Z,10.52
2023-02-20T15:36:06.454Z,8.80
2023-02-20T15:38:36.718Z,8.55
2023-02-20T15:41:05.961Z,9.43
2023-02-20T15:43:45.836Z,8.85
2023-02-20T15:46:15.656Z,9.05
2023-02-20T15:48:43.388Z,9.07
2023-02-20T15:51:12.219Z,7.90
2023-02-20T15:53:39.860Z,9.57
2023-02-20T15:56:07.467Z,10.52
2023-02-20T15:58:38.528Z,11.60
2023-02-20T16:01:06.866Z,11.38
2023-02-20T16:03:49.205Z,10.27
2023-02-20T16:06:19.824Z,9.30
2023-02-20T16:08:47.668Z,8.55
2023-02-20T16:11:15.368Z,10.35
2023-02-20T16:13:46.487Z,9.43
2023-02-20T16:16:25.470Z,8.02
2023-02-20T16:18:55.266Z,9.18
2023-02-20T16:21:24.631Z,8.55
2023-02-20T16:23:52.522Z,8.60
2023-02-20T16:26:22.341Z,8.73
2023-02-20T16:28:56.264Z,8.20
2023-02-20T16:32:03.342Z,9.82
2023-02-20T16:34:32.538Z,7.75
2023-02-20T16:37:00.524Z,7.88
2023-02-20T16:39:27.851Z,9.02
2023-02-20T16:41:58.194Z,11.50
2023-02-20T16:44:33.895Z,14.23
2023-02-20T16:47:01.135Z,21.40
2023-02-20T16:49:28.349Z,15.05
2023-02-20T16:52:04.857Z,18.50
2023-02-20T16:54:32.667Z,22.92
2023-02-20T16:56:59.910Z,18.00
2023-02-20T16:59:27.125Z,15.50
2023-02-20T17:01:54.279Z,13.27
2023-02-20T17:04:21.405Z,13.90
2023-02-20T17:06:48.846Z,18.88
2023-02-20T17:09:16.004Z,15.75
2023-02-20T17:11:43.349Z,16.10
2023-02-20T17:14:13.533Z,16.15
2023-02-20T17:16:41.006Z,15.95
2023-02-20T17:19:08.926Z,27.35
2023-02-20T17:21:36.198Z,23.88
2023-02-20T17:24:03.321Z,17.52
2023-02-20T17:26:30.437Z,12.80
2023-02-20T17:28:58.008Z,12.80
2023-02-20T17:31:25.506Z,11.82
2023-02-20T17:33:53.009Z,22.85
2023-02-20T17:36:20.242Z,24.65
2023-02-20T17:38:47.483Z,24.15
2023-02-20T17:41:14.963Z,22.52
2023-02-20T17:43:42.577Z,19.25
2023-02-20T17:46:10.818Z,18.60
2023-02-20T17:48:40.924Z,20.42
2023-02-20T17:51:08.814Z,19.15
2023-02-20T17:53:36.081Z,20.02
2023-02-20T17:56:03.533Z,19.50
2023-02-20T17:58:33.641Z,21.40
2023-02-20T18:01:01.028Z,19.38
2023-02-20T18:03:28.735Z,20.67
2023-02-20T18:05:56.005Z,22.92
2023-02-20T18:08:23.602Z,24.13
2023-02-20T18:10:50.787Z,21.10
2023-02-20T18:13:18.192Z,20.60
2023-02-20T18:15:45.360Z,18.63
2023-02-20T18:18:15.763Z,19.73
2023-02-20T18:20:43.772Z,19.02
2023-02-20T18:23:11.679Z,17.25
2023-02-20T18:25:40.984Z,19.08
2023-02-20T18:28:09.706Z,17.42
2023-02-20T18:30:37.422Z,17.13
2023-02-20T18:33:05.339Z,18.92
2023-02-20T18:35:33.282Z,18.13
2023-02-20T18:38:01.327Z,18.73
2023-02-20T18:40:29.564Z,18.63
2023-02-20T18:42:56.938Z,17.25
2023-02-20T18:45:24.073Z,15.85
2023-02-20T18:47:53.264Z,16.73
2023-02-20T18:50:21.117Z,16.02
2023-02-20T18:52:49.725Z,14.75
2023-02-20T18:55:17.867Z,15.25
2023-02-20T18:57:48.014Z,15.27
2023-02-20T19:00:18.084Z,14.85
2023-02-20T19:02:46.110Z,15.07
2023-02-20T19:05:14.036Z,17.73
2023-02-20T19:07:42.994Z,22.23
2023-02-20T19:10:12.808Z,19.25
2023-02-20T19:12:40.469Z,22.10
2023-02-20T19:15:09.369Z,18.10
2023-02-20T19:17:39.020Z,14.75
2023-02-20T19:20:09.890Z,14.25
2023-02-20T19:22:37.240Z,13.35
2023-02-20T19:25:04.749Z,13.38
2023-02-20T19:27:32.129Z,12.88
2023-02-20T19:29:59.814Z,13.63
2023-02-20T19:32:27.177Z,13.25
2023-02-20T19:34:55.111Z,13.43
2023-02-20T19:37:22.819Z,13.45
2023-02-20T19:39:50.225Z,12.98
2023-02-20T19:42:17.723Z,14.23
2023-02-20T19:44:45.559Z,15.57
2023-02-20T19:47:15.546Z,18.70
2023-02-20T19:49:50.517Z,21.83
2023-02-20T19:52:18.877Z,21.73
2023-02-20T19:54:47.981Z,20.73
2023-02-20T19:57:15.582Z,19.83
2023-02-20T19:59:43.992Z,20.65
2023-02-20T20:02:13.053Z,22.05
2023-02-20T20:04:40.479Z,20.83
2023-02-20T20:07:07.667Z,19.42
2023-02-20T20:09:37.711Z,19.02
2023-02-20T20:12:27.013Z,18.60
2023-02-20T20:14:55.077Z,17.50
2023-02-20T20:17:22.549Z,17.20
2023-02-20T20:20:00.478Z,16.25
2023-02-20T20:22:29.676Z,15.38
2023-02-20T20:24:57.039Z,19.83
2023-02-20T20:27:24.580Z,18.55
2023-02-20T20:29:52.435Z,17.65
2023-02-20T20:32:21.066Z,16.92
2023-02-20T20:34:52.314Z,16.38
2023-02-20T20:37:21.451Z,16.45
2023-02-20T20:39:50.140Z,16.67
2023-02-20T20:42:23.477Z,18.20
2023-02-20T20:44:51.406Z,14.40
2023-02-20T20:47:20.026Z,14.82
2023-02-20T20:49:47.509Z,14.00
2023-02-20T20:52:15.292Z,13.23
2023-02-20T20:54:42.924Z,14.30
2023-02-20T20:57:10.465Z,13.13
2023-02-20T20:59:41.211Z,13.00
2023-02-20T21:02:09.004Z,12.27
2023-02-20T21:04:36.200Z,12.88
2023-02-20T21:07:03.556Z,14.50
2023-02-20T21:09:30.656Z,16.10
2023-02-20T21:11:57.961Z,15.32
2023-02-20T21:14:25.712Z,20.17
2023-02-20T21:16:53.458Z,25.00
2023-02-20T21:19:21.253Z,22.65
2023-02-20T21:21:49.020Z,17.88
2023-02-20T21:24:16.555Z,16.52
2023-02-20T21:26:44.103Z,14.98
2023-02-20T21:29:11.474Z,13.63
2023-02-20T21:31:42.293Z,14.35
2023-02-20T21:34:10.127Z,13.57
2023-02-20T21:36:37.302Z,15.55
2023-02-20T21:39:05.495Z,14.68
2023-02-20T21:41:52.611Z,15.43
2023-02-20T21:44:26.512Z,16.27
2023-02-20T21:46:55.995Z,15.23
2023-02-20T21:49:23.838Z,15.38
2023-02-20T21:51:51.225Z,15.63
2023-02-20T21:54:19.872Z,14.57
2023-02-20T21:56:47.119Z,14.85
2023-02-20T21:59:16.043Z,14.85
2023-02-20T22:01:43.848Z,14.63
2023-02-20T22:04:13.687Z,15.60
2023-02-20T22:06:42.122Z,15.82
2023-02-20T22:09:29.585Z,14.43
2023-02-20T22:12:16.843Z,14.68
2023-02-20T22:15:03.987Z,15.35
2023-02-20T22:17:50.939Z,14.05
2023-02-20T22:20:38.122Z,13.80
2023-02-20T22:23:25.397Z,13.55
2023-02-20T22:26:12.484Z,11.20
2023-02-20T22:29:00.046Z,12.07
2023-02-20T22:31:47.454Z,13.13
2023-02-20T22:34:34.634Z,11.82
2023-02-20T22:37:22.122Z,11.70
2023-02-20T22:40:09.721Z,11.00
2023-02-20T22:42:56.701Z,9.68
2023-02-20T22:45:43.889Z,10.55
2023-02-20T22:48:30.954Z,9.82
2023-02-20T22:51:18.092Z,10.93
2023-02-20T22:54:06.971Z,10.23
2023-02-20T22:56:54.241Z,11.13
2023-02-20T22:59:41.218Z,10.60
2023-02-20T23:02:28.268Z,10.93
2023-02-20T23:05:15.411Z,9.57
2023-02-20T23:08:02.585Z,9.75
2023-02-20T23:10:51.578Z,9.50
2023-02-20T23:13:38.951Z,10.15
2023-02-20T23:16:26.165Z,10.32
2023-02-20T23:19:13.245Z,9.98
2023-02-20T23:22:05.230Z,10.07
2023-02-20T23:24:52.247Z,9.00
2023-02-20T23:27:39.630Z,8.50
2023-02-20T23:30:27.422Z,7.50
2023-02-20T23:33:14.851Z,8.35
2023-02-20T23:36:01.853Z,9.57
2023-02-20T23:38:49.466Z,8.30
2023-02-20T23:41:36.411Z,8.80
2023-02-20T23:44:26.976Z,8.90
2023-02-20T23:47:14.088Z,9.00
2023-02-20T23:50:01.123Z,9.20
2023-02-20T23:52:48.167Z,9.50
2023-02-20T23:55:35.341Z,8.63
2023-02-20T23:58:22.338Z,9.48
